createdAt,value
2023-03-26T00:01:30.024Z,11.42
2023-03-26T00:03:58.245Z,11.38
2023-03-26T00:06:36.905Z,11.39
2023-03-26T00:09:05.362Z,11.37
2023-03-26T00:11:32.492Z,11.34
2023-03-26T00:13:59.608Z,11.33
2023-03-26T00:16:30.787Z,11.33
2023-03-26T00:18:58.954Z,11.31
2023-03-26T00:21:29.200Z,11.31
2023-03-26T00:24:00.038Z,11.26
2023-03-26T00:26:27.657Z,11.29
2023-03-26T00:28:54.836Z,11.30
2023-03-26T00:31:22.041Z,11.29
2023-03-26T00:33:54.457Z,11.29
2023-03-26T00:36:22.815Z,11.33
2023-03-26T00:38:49.831Z,11.32
2023-03-26T00:41:23.204Z,11.32
2023-03-26T00:43:52.202Z,11.34
2023-03-26T00:46:19.892Z,11.36
2023-03-26T00:48:47.262Z,11.37
2023-03-26T00:51:16.368Z,11.37
2023-03-26T00:53:45.660Z,11.40
2023-03-26T00:56:13.051Z,11.41
2023-03-26T00:58:40.462Z,11.44
2023-03-26T01:01:17.423Z,11.44
2023-03-26T01:04:00.931Z,11.43
2023-03-26T01:06:36.730Z,11.43
2023-03-26T01:09:14.789Z,11.40
2023-03-26T01:11:42.287Z,11.39
2023-03-26T01:14:13.176Z,11.34
2023-03-26T01:16:45.226Z,11.33
2023-03-26T01:19:23.035Z,11.32
2023-03-26T01:21:50.015Z,11.30
2023-03-26T01:24:17.316Z,11.23
2023-03-26T01:26:58.134Z,11.27
2023-03-26T01:29:34.139Z,11.25
2023-03-26T01:32:09.791Z,11.21
2023-03-26T01:34:43.652Z,11.23
2023-03-26T01:37:38.138Z,11.21
2023-03-26T01:40:12.155Z,11.18
2023-03-26T01:42:54.871Z,11.21
2023-03-26T01:45:26.684Z,10.93
2023-03-26T01:47:54.708Z,11.21
2023-03-26T01:50:21.805Z,11.21
2023-03-26T01:52:48.824Z,11.17
2023-03-26T01:55:16.158Z,11.20
2023-03-26T01:58:03.794Z,11.20
2023-03-26T02:00:37.577Z,11.19
2023-03-26T02:03:18.518Z,11.21
2023-03-26T02:06:11.457Z,11.22
2023-03-26T02:08:47.855Z,11.22
2023-03-26T02:11:16.604Z,11.24
2023-03-26T02:13:46.733Z,11.22
2023-03-26T02:16:16.782Z,11.26
2023-03-26T02:18:45.882Z,11.28
2023-03-26T02:21:21.730Z,11.30
2023-03-26T02:23:51.073Z,11.31
2023-03-26T02:26:20.094Z,11.32
2023-03-26T02:28:47.216Z,11.33
2023-03-26T02:31:16.273Z,11.31
2023-03-26T02:33:44.882Z,11.34
2023-03-26T02:36:14.272Z,11.35
2023-03-26T02:38:41.820Z,11.40
2023-03-26T02:41:08.832Z,11.44
2023-03-26T02:43:35.895Z,11.47
2023-03-26T02:46:02.901Z,11.49
2023-03-26T02:48:29.952Z,11.51
2023-03-26T02:50:57.105Z,11.54
2023-03-26T02:53:30.262Z,11.56
2023-03-26T02:55:58.462Z,11.59
2023-03-26T02:58:26.536Z,11.60
2023-03-26T03:00:57.399Z,11.62
2023-03-26T03:03:26.386Z,11.59
2023-03-26T03:05:55.062Z,11.59
2023-03-26T03:08:25.008Z,11.60
2023-03-26T03:11:02.182Z,11.59
2023-03-26T03:13:29.488Z,11.57
2023-03-26T03:15:56.888Z,11.57
2023-03-26T03:18:24.096Z,11.52
2023-03-26T03:20:51.374Z,11.54
2023-03-26T03:23:18.337Z,11.54
2023-03-26T03:25:45.635Z,11.53
2023-03-26T03:28:14.009Z,11.53
2023-03-26T03:30:40.993Z,11.59
2023-03-26T03:33:08.120Z,11.59
2023-03-26T03:35:35.377Z,11.61
2023-03-26T03:38:02.412Z,11.66
2023-03-26T03:40:29.530Z,11.69
2023-03-26T03:42:56.587Z,11.76
2023-03-26T03:45:23.634Z,11.84
2023-03-26T03:47:50.937Z,11.92
2023-03-26T03:50:17.907Z,12.01
2023-03-26T03:52:44.971Z,12.12
2023-03-26T03:55:14.230Z,12.21
2023-03-26T03:57:41.528Z,12.27
2023-03-26T04:00:10.282Z,12.30
2023-03-26T04:02:37.745Z,12.34
2023-03-26T04:05:06.279Z,12.38
2023-03-26T04:07:33.336Z,12.41
2023-03-26T04:10:02.257Z,12.45
2023-03-26T04:12:31.335Z,12.51
2023-03-26T04:14:59.298Z,12.57
2023-03-26T04:17:26.868Z,12.57
2023-03-26T04:19:55.205Z,12.58
2023-03-26T04:22:23.773Z,12.61
2023-03-26T04:24:54.734Z,12.58
2023-03-26T04:27:28.525Z,12.50
2023-03-26T04:29:58.349Z,12.46
2023-03-26T04:32:30.079Z,12.31
2023-03-26T04:35:04.298Z,12.39
2023-03-26T04:37:40.159Z,12.36
2023-03-26T04:40:10.420Z,12.32
2023-03-26T04:42:41.905Z,12.27
2023-03-26T04:45:11.342Z,12.23
2023-03-26T04:47:39.337Z,12.23
2023-03-26T04:50:11.475Z,12.17
2023-03-26T04:52:38.912Z,12.17
2023-03-26T04:55:14.076Z,12.12
2023-03-26T04:57:46.433Z,12.11
2023-03-26T05:00:16.780Z,12.09
2023-03-26T05:02:43.971Z,12.12
2023-03-26T05:05:12.357Z,12.11
2023-03-26T05:07:39.381Z,12.17
2023-03-26T05:10:07.489Z,12.22
2023-03-26T05:12:35.161Z,12.35
2023-03-26T05:15:02.249Z,12.49
2023-03-26T05:17:31.195Z,12.71
2023-03-26T05:19:58.283Z,12.87
2023-03-26T05:22:25.567Z,13.11
2023-03-26T05:24:52.774Z,13.26
2023-03-26T05:27:22.601Z,13.35
2023-03-26T05:29:50.777Z,13.43
2023-03-26T05:32:17.751Z,13.49
2023-03-26T05:34:45.261Z,13.51
2023-03-26T05:37:12.233Z,13.51
2023-03-26T05:39:39.459Z,13.49
2023-03-26T05:42:08.172Z,13.44
2023-03-26T05:44:35.587Z,13.46
2023-03-26T05:47:02.709Z,13.41
2023-03-26T05:49:29.882Z,13.35
2023-03-26T05:51:56.840Z,13.32
2023-03-26T05:54:23.993Z,13.29
2023-03-26T05:56:51.427Z,13.32
2023-03-26T05:59:18.596Z,13.28
2023-03-26T06:01:45.568Z,13.33
2023-03-26T06:04:13.905Z,13.35
2023-03-26T06:06:41.435Z,13.35
2023-03-26T06:09:08.675Z,13.32
2023-03-26T06:11:35.976Z,13.23
2023-03-26T06:14:02.933Z,13.24
2023-03-26T06:16:29.981Z,13.21
2023-03-26T06:18:57.792Z,13.18
2023-03-26T06:21:28.890Z,13.12
2023-03-26T06:23:56.182Z,13.07
2023-03-26T06:26:23.395Z,13.00
2023-03-26T06:28:50.605Z,13.00
2023-03-26T06:31:19.410Z,12.97
2023-03-26T06:33:47.152Z,12.91
2023-03-26T06:36:14.204Z,12.92
2023-03-26T06:38:41.270Z,12.86
2023-03-26T06:41:08.315Z,12.79
2023-03-26T06:43:36.425Z,12.76
2023-03-26T06:46:03.723Z,12.63
2023-03-26T06:48:31.159Z,12.51
2023-03-26T06:50:58.347Z,12.44
2023-03-26T06:53:25.441Z,12.41
2023-03-26T06:55:55.568Z,12.37
2023-03-26T06:58:22.685Z,12.34
2023-03-26T07:00:53.875Z,12.38
2023-03-26T07:03:21.535Z,12.42
2023-03-26T07:05:49.254Z,12.40
2023-03-26T07:08:16.672Z,12.38
2023-03-26T07:10:45.047Z,12.36
2023-03-26T07:13:12.096Z,12.37
2023-03-26T07:15:39.137Z,12.32
2023-03-26T07:18:06.663Z,12.32
2023-03-26T07:20:33.835Z,12.34
2023-03-26T07:23:01.347Z,12.29
2023-03-26T07:25:28.897Z,12.27
2023-03-26T07:28:04.634Z,12.21
2023-03-26T07:30:53.654Z,12.22
2023-03-26T07:33:40.028Z,12.30
2023-03-26T07:36:25.103Z,12.46
2023-03-26T07:39:08.934Z,12.65
2023-03-26T07:41:51.276Z,12.85
2023-03-26T07:44:44.632Z,13.03
2023-03-26T07:47:26.186Z,13.16
2023-03-26T07:49:57.857Z,13.28
2023-03-26T07:52:26.290Z,13.38
2023-03-26T07:54:54.026Z,13.43
2023-03-26T07:57:47.791Z,13.50
2023-03-26T08:00:24.266Z,13.53
2023-03-26T08:03:27.734Z,13.53
2023-03-26T08:06:17.201Z,13.40
2023-03-26T08:09:04.244Z,13.45
2023-03-26T08:11:57.218Z,13.45
2023-03-26T08:14:45.770Z,13.49
2023-03-26T08:17:31.062Z,13.49
2023-03-26T08:20:16.762Z,13.48
2023-03-26T08:22:50.939Z,13.52
2023-03-26T08:25:28.359Z,13.56
2023-03-26T08:28:10.842Z,13.62
2023-03-26T08:30:37.998Z,13.68
2023-03-26T08:33:19.010Z,13.76
2023-03-26T08:35:47.250Z,13.79
2023-03-26T08:38:16.966Z,13.88
2023-03-26T08:41:02.587Z,13.96
2023-03-26T08:43:55.650Z,14.02
2023-03-26T08:46:44.122Z,14.03
2023-03-26T08:49:32.418Z,14.09
2023-03-26T08:52:31.741Z,14.15
2023-03-26T08:55:35.323Z,14.21
2023-03-26T08:58:26.400Z,14.20
2023-03-26T09:01:21.267Z,14.21
2023-03-26T09:04:21.137Z,14.19
2023-03-26T09:07:06.985Z,14.22
2023-03-26T09:10:15.759Z,14.23
2023-03-26T09:13:21.369Z,14.26
2023-03-26T09:16:25.832Z,14.32
2023-03-26T09:19:13.538Z,14.36
2023-03-26T09:21:58.606Z,14.43
2023-03-26T09:24:49.045Z,14.34
2023-03-26T09:27:37.572Z,14.27
2023-03-26T09:30:42.227Z,14.13
2023-03-26T09:33:42.959Z,14.13
2023-03-26T09:36:21.861Z,14.06
2023-03-26T09:39:30.189Z,13.92
2023-03-26T09:42:25.121Z,13.88
2023-03-26T09:45:10.796Z,13.85
2023-03-26T09:47:56.778Z,13.78
2023-03-26T09:50:43.321Z,13.70
2023-03-26T09:53:42.102Z,13.55
2023-03-26T09:56:18.883Z,13.43
2023-03-26T09:59:23.254Z,13.42
2023-03-26T10:01:53.192Z,13.50
2023-03-26T10:04:56.083Z,13.59
2023-03-26T10:08:02.445Z,13.72
2023-03-26T10:10:39.379Z,13.82
2023-03-26T10:13:19.016Z,13.92
2023-03-26T10:16:17.242Z,13.98
2023-03-26T10:19:23.334Z,13.97
2023-03-26T10:22:12.013Z,13.97
2023-03-26T10:24:48.315Z,14.00
2023-03-26T10:27:49.456Z,14.00
2023-03-26T10:30:30.637Z,14.03
2023-03-26T10:33:23.374Z,14.04
2023-03-26T10:36:22.682Z,14.00
2023-03-26T10:39:37.358Z,13.93
2023-03-26T10:42:12.059Z,13.86
2023-03-26T10:45:29.920Z,13.78
2023-03-26T10:48:20.099Z,13.65
2023-03-26T10:50:58.050Z,13.54
2023-03-26T10:53:34.804Z,13.46
2023-03-26T10:56:14.109Z,13.42
2023-03-26T10:58:49.574Z,13.38
2023-03-26T11:01:38.574Z,13.38
2023-03-26T11:04:38.216Z,13.42
2023-03-26T11:07:23.619Z,13.58
2023-03-26T11:10:10.586Z,13.78
2023-03-26T11:12:53.185Z,14.02
2023-03-26T11:15:41.732Z,14.21
2023-03-26T11:18:19.234Z,14.26
2023-03-26T11:21:18.788Z,14.42
2023-03-26T11:24:16.572Z,14.35
2023-03-26T11:27:15.556Z,14.33
2023-03-26T11:29:58.280Z,14.43
2023-03-26T11:32:31.536Z,14.55
2023-03-26T11:35:04.372Z,14.77
2023-03-26T11:37:37.935Z,15.09
2023-03-26T11:40:21.592Z,15.47
2023-03-26T11:42:54.649Z,15.94
2023-03-26T11:45:26.264Z,16.31
2023-03-26T11:48:02.191Z,16.74
2023-03-26T11:50:33.076Z,16.92
2023-03-26T11:53:12.127Z,16.92
2023-03-26T11:55:50.503Z,16.72
2023-03-26T11:58:34.311Z,16.68
2023-03-26T12:01:13.042Z,16.54
2023-03-26T12:03:40.786Z,16.50
2023-03-26T12:06:25.874Z,16.36
2023-03-26T12:08:54.265Z,16.31
2023-03-26T12:11:28.929Z,16.23
2023-03-26T12:14:02.738Z,16.14
2023-03-26T12:16:30.130Z,16.08
2023-03-26T12:19:00.290Z,16.11
2023-03-26T12:21:27.657Z,16.19
2023-03-26T12:24:04.854Z,16.33
2023-03-26T12:26:49.200Z,16.48
2023-03-26T12:29:19.304Z,16.48
2023-03-26T12:31:49.636Z,16.50
2023-03-26T12:34:22.509Z,16.45
2023-03-26T12:37:00.236Z,16.42
2023-03-26T12:40:07.431Z,16.42
2023-03-26T12:44:48.103Z,16.38
2023-03-26T12:45:14.584Z,16.37
2023-03-26T12:48:00.710Z,16.33
2023-03-26T12:50:57.396Z,16.23
2023-03-26T12:53:58.830Z,16.10
2023-03-26T12:56:38.592Z,16.05
2023-03-26T12:59:22.279Z,15.96
2023-03-26T13:02:20.219Z,15.84
2023-03-26T13:05:20.545Z,15.74
2023-03-26T13:08:18.729Z,15.66
2023-03-26T13:11:02.325Z,15.55
2023-03-26T13:13:41.637Z,15.57
2023-03-26T13:16:18.069Z,15.48
2023-03-26T13:18:54.214Z,15.42
2023-03-26T13:21:37.439Z,15.37
2023-03-26T13:24:23.267Z,15.34
2023-03-26T13:27:31.804Z,15.26
2023-03-26T13:30:22.255Z,15.30
2023-03-26T13:33:26.104Z,15.30
2023-03-26T13:36:23.143Z,15.32
2023-03-26T13:39:27.925Z,15.30
2023-03-26T13:42:14.857Z,15.28
2023-03-26T13:45:12.353Z,15.23
2023-03-26T13:47:46.641Z,15.24
2023-03-26T13:50:27.299Z,15.17
2023-03-26T13:53:19.428Z,15.17
2023-03-26T13:55:53.592Z,15.15
2023-03-26T13:58:38.900Z,15.14
2023-03-26T14:01:19.824Z,15.12
2023-03-26T14:03:52.639Z,15.08
2023-03-26T14:06:42.428Z,15.10
2023-03-26T14:09:26.287Z,15.09
2023-03-26T14:12:01.986Z,15.08
2023-03-26T14:14:54.471Z,15.08
2023-03-26T14:17:47.687Z,15.06
2023-03-26T14:20:32.721Z,15.00
2023-03-26T14:23:23.547Z,14.93
2023-03-26T14:25:57.994Z,14.82
2023-03-26T14:28:43.584Z,14.78
2023-03-26T14:31:20.805Z,14.74
2023-03-26T14:34:16.512Z,14.64
2023-03-26T14:37:13.877Z,14.52
2023-03-26T14:40:15.322Z,14.32
2023-03-26T14:42:56.881Z,14.27
2023-03-26T14:45:50.129Z,14.17
2023-03-26T14:48:38.735Z,14.05
2023-03-26T14:51:14.825Z,13.89
2023-03-26T14:53:59.328Z,13.79
2023-03-26T14:56:48.889Z,13.66
2023-03-26T15:00:07.303Z,13.57
2023-03-26T15:02:55.785Z,13.43
2023-03-26T15:06:04.121Z,13.14
2023-03-26T15:08:49.696Z,13.22
2023-03-26T15:11:25.927Z,13.12
2023-03-26T15:14:30.360Z,13.03
2023-03-26T15:17:33.328Z,12.95
2023-03-26T15:20:18.241Z,12.86
2023-03-26T15:23:22.573Z,12.79
2023-03-26T15:25:58.593Z,12.72
2023-03-26T15:29:05.291Z,12.63
2023-03-26T15:32:12.443Z,12.56
2023-03-26T15:35:17.146Z,12.49
2023-03-26T15:38:12.818Z,12.42
2023-03-26T15:41:03.643Z,12.37
2023-03-26T15:44:23.139Z,12.31
2023-03-26T15:46:37.815Z,12.27
2023-03-26T15:49:17.008Z,12.22
2023-03-26T15:52:09.486Z,12.17
2023-03-26T15:54:59.665Z,12.11
2023-03-26T15:57:36.530Z,12.07
2023-03-26T16:00:25.271Z,12.02
2023-03-26T16:03:10.165Z,11.97
2023-03-26T16:05:40.650Z,11.92
2023-03-26T16:08:19.859Z,11.87
2023-03-26T16:10:50.782Z,11.84
2023-03-26T16:13:19.157Z,11.81
2023-03-26T16:16:16.345Z,11.78
2023-03-26T16:19:20.318Z,11.77
2023-03-26T16:22:00.990Z,11.72
2023-03-26T16:24:35.647Z,11.72
2023-03-26T16:27:08.245Z,11.72
2023-03-26T16:30:01.634Z,11.69
2023-03-26T16:32:40.885Z,11.67
2023-03-26T16:35:14.544Z,11.65
2023-03-26T16:38:04.904Z,11.62
2023-03-26T16:40:37.202Z,11.53
2023-03-26T16:43:22.757Z,11.56
2023-03-26T16:46:28.992Z,11.54
2023-03-26T16:48:56.662Z,11.52
2023-03-26T16:51:51.449Z,11.51
2023-03-26T16:54:39.693Z,11.49
2023-03-26T16:57:23.520Z,11.52
2023-03-26T17:00:07.063Z,11.56
2023-03-26T17:03:13.458Z,11.63
2023-03-26T17:05:57.180Z,11.70
2023-03-26T17:08:39.257Z,11.82
2023-03-26T17:11:45.003Z,11.91
2023-03-26T17:14:51.379Z,12.04
2023-03-26T17:17:40.959Z,12.15
2023-03-26T17:20:33.950Z,12.23
2023-03-26T17:23:16.956Z,12.26
2023-03-26T17:25:52.884Z,12.36
2023-03-26T17:28:50.941Z,12.43
2023-03-26T17:31:36.994Z,12.50
2023-03-26T17:34:52.643Z,12.56
2023-03-26T17:37:24.092Z,12.62
2023-03-26T17:39:51.667Z,12.69
2023-03-26T17:42:39.170Z,12.72
2023-03-26T17:45:17.866Z,12.76
2023-03-26T17:48:02.622Z,12.77
2023-03-26T17:50:42.411Z,12.78
2023-03-26T17:53:31.660Z,12.80
2023-03-26T17:56:04.199Z,12.83
2023-03-26T17:58:37.742Z,12.88
2023-03-26T18:01:13.591Z,12.93
2023-03-26T18:03:49.573Z,13.00
2023-03-26T18:07:04.194Z,13.09
2023-03-26T18:10:09.885Z,13.20
2023-03-26T18:13:03.117Z,13.23
2023-03-26T18:15:44.847Z,13.26
2023-03-26T18:18:38.929Z,13.24
2023-03-26T18:21:08.721Z,13.25
2023-03-26T18:23:39.263Z,13.24
2023-03-26T18:26:32.794Z,13.22
2023-03-26T18:29:29.232Z,13.16
2023-03-26T18:32:00.897Z,13.12
2023-03-26T18:34:32.159Z,13.01
2023-03-26T18:37:11.823Z,13.07
2023-03-26T18:39:39.473Z,13.04
2023-03-26T18:42:07.407Z,13.03
2023-03-26T18:44:39.526Z,13.00
2023-03-26T18:47:09.786Z,12.97
2023-03-26T18:49:38.153Z,12.99
2023-03-26T18:52:06.656Z,12.96
2023-03-26T18:54:36.845Z,12.91
2023-03-26T18:57:17.214Z,12.92
2023-03-26T18:59:45.802Z,12.86
2023-03-26T19:02:14.926Z,12.85
2023-03-26T19:04:46.966Z,12.78
2023-03-26T19:07:22.712Z,12.76
2023-03-26T19:09:54.958Z,12.73
2023-03-26T19:12:27.704Z,12.71
2023-03-26T19:15:17.530Z,12.63
2023-03-26T19:17:57.159Z,12.66
2023-03-26T19:20:29.964Z,12.61
2023-03-26T19:22:58.389Z,12.60
2023-03-26T19:25:41.652Z,12.57
2023-03-26T19:28:22.823Z,12.50
2023-03-26T19:30:56.054Z,12.59
2023-03-26T19:33:25.158Z,12.58
2023-03-26T19:36:18.001Z,12.53
2023-03-26T19:38:49.918Z,12.53
2023-03-26T19:41:25.093Z,12.55
2023-03-26T19:43:59.087Z,12.56
2023-03-26T19:46:29.395Z,12.59
2023-03-26T19:48:58.495Z,12.67
2023-03-26T19:51:33.061Z,12.73
2023-03-26T19:54:19.960Z,12.71
2023-03-26T19:56:47.585Z,12.79
2023-03-26T19:59:15.584Z,12.80
2023-03-26T20:01:42.712Z,12.73
2023-03-26T20:04:11.762Z,12.83
2023-03-26T20:06:44.231Z,12.86
2023-03-26T20:09:16.537Z,12.85
2023-03-26T20:11:47.082Z,12.83
2023-03-26T20:14:17.431Z,12.84
2023-03-26T20:16:47.949Z,12.84
2023-03-26T20:19:15.760Z,12.85
2023-03-26T20:21:44.976Z,12.86
2023-03-26T20:24:15.176Z,12.82
2023-03-26T20:26:43.768Z,12.79
2023-03-26T20:29:13.102Z,12.79
2023-03-26T20:31:41.949Z,12.72
2023-03-26T20:34:22.389Z,12.66
2023-03-26T20:36:55.613Z,12.65
2023-03-26T20:39:24.492Z,12.59
2023-03-26T20:41:53.955Z,12.53
2023-03-26T20:44:22.103Z,12.48
2023-03-26T20:46:50.391Z,12.45
2023-03-26T20:49:18.705Z,12.40
2023-03-26T20:51:46.921Z,12.45
2023-03-26T20:54:23.808Z,12.43
2023-03-26T20:56:51.742Z,12.46
2023-03-26T20:59:22.663Z,12.47
2023-03-26T21:01:50.590Z,12.47
2023-03-26T21:04:19.376Z,12.46
2023-03-26T21:06:51.783Z,12.45
2023-03-26T21:09:24.361Z,12.47
2023-03-26T21:12:02.674Z,12.49
2023-03-26T21:14:43.612Z,12.51
2023-03-26T21:17:19.996Z,12.55
2023-03-26T21:19:48.177Z,12.53
2023-03-26T21:22:27.594Z,12.59
2023-03-26T21:25:17.339Z,12.60
2023-03-26T21:28:00.148Z,12.59
2023-03-26T21:30:27.809Z,12.56
2023-03-26T21:32:55.359Z,12.54
2023-03-26T21:35:23.178Z,12.50
2023-03-26T21:37:51.051Z,12.47
2023-03-26T21:40:19.638Z,12.43
2023-03-26T21:42:48.725Z,12.39
2023-03-26T21:45:16.415Z,12.38
2023-03-26T21:47:44.899Z,12.36
2023-03-26T21:50:14.851Z,12.36
2023-03-26T21:52:47.182Z,12.37
2023-03-26T21:55:22.518Z,12.37
2023-03-26T21:57:54.684Z,12.37
2023-03-26T22:00:33.502Z,12.38
2023-03-26T22:03:32.948Z,12.37
2023-03-26T22:06:09.170Z,12.32
2023-03-26T22:08:41.141Z,12.25
2023-03-26T22:11:10.578Z,12.14
2023-03-26T22:13:40.428Z,12.03
2023-03-26T22:16:10.012Z,11.95
2023-03-26T22:18:37.142Z,11.85
2023-03-26T22:21:04.808Z,11.78
2023-03-26T22:23:36.622Z,11.75
2023-03-26T22:26:06.129Z,11.75
2023-03-26T22:28:33.560Z,11.73
2023-03-26T22:31:07.476Z,11.69
2023-03-26T22:33:36.165Z,11.59
2023-03-26T22:36:03.269Z,11.56
2023-03-26T22:38:30.951Z,11.44
2023-03-26T22:40:58.748Z,11.25
2023-03-26T22:43:26.285Z,11.20
2023-03-26T22:45:54.835Z,11.11
2023-03-26T22:48:23.702Z,11.01
2023-03-26T22:51:02.989Z,10.88
2023-03-26T22:53:31.004Z,10.78
2023-03-26T22:55:59.266Z,10.67
2023-03-26T22:58:27.310Z,10.57
2023-03-26T23:01:09.481Z,10.50
2023-03-26T23:03:37.459Z,10.39
2023-03-26T23:06:07.682Z,10.34
2023-03-26T23:08:36.356Z,10.28
2023-03-26T23:11:15.351Z,10.22
2023-03-26T23:13:43.653Z,10.18
2023-03-26T23:16:12.019Z,10.14
2023-03-26T23:18:39.829Z,10.08
2023-03-26T23:21:11.855Z,10.03
2023-03-26T23:23:39.917Z,9.97
2023-03-26T23:26:07.448Z,9.93
2023-03-26T23:28:35.247Z,9.88
2023-03-26T23:31:05.177Z,9.83
2023-03-26T23:33:35.540Z,9.78
2023-03-26T23:36:09.365Z,9.74
2023-03-26T23:38:44.244Z,9.70
2023-03-26T23:41:15.965Z,9.65
2023-03-26T23:43:55.721Z,9.64
2023-03-26T23:46:25.743Z,9.62
2023-03-26T23:48:53.100Z,9.56
2023-03-26T23:51:21.192Z,9.53
2023-03-26T23:53:49.598Z,9.48
2023-03-26T23:56:17.262Z,9.47
2023-03-26T23:58:44.238Z,9.44
